Aérodrome :
LOGIN :

S'inscrire | Disclaimer

   EN    FR    IT 

 










Légende :    VFR   VFR Marginal   IFR   IFR Intensif   IFR Très Intensif
Visi : 
Plafond : 
>= 8 km
>= 3000ft
5 à 8 km
1000 à 3000 ft
1500m à 5 km
500 à 1000 ft
800 à 1500m
200 à 500 ft
< 800m
< 200 ft
Symboles :   Orages  Brouillard  Fortes neiges  Fortes précipitations  Vent > 20 kt
SIGMETs :   Divers  Orages  Givrage  Turbulence  Onde Orograph.  Cendres Volcan.






- Altitude de l'aérodrome : 375 ft
- Code IATA : MST


EHBK - Maastricht Aachen

DERNIER METAR :
  • 220025Z AUTO 22020KT 9999 OVC025 06/02 Q1023

METARs EXPIRÉS :
  • 212255Z AUTO 22020KT 9999 OVC030 07/02 Q1024
  • 212225Z AUTO 21018KT 9999 OVC030 07/02 Q1024

TAF TAF EHBK
Valide du 21 à 18h jusqu'au 23 à 00h UTC


211721Z 2118/2224 23017G27KT 9999 BKN040
PROB30
TEMPO 2210/2213 6000 -RA
BECMG 2215/2217 BKN012
BECMG 2217/2219 SCT030
PROB40
TEMPO 2217/2224 25022G32KT 4000 -SHRA RA BKN008 SCT020TCU



MET'MAP, la Météo Aéronautique d'un coup d'oeil ! - Copyright ORBIFLY Décembre 2007 - Disclaimer

ORBIFLY MET'MAP TEAM :

Programmation & Développement : Alexandra Zaïnal
Sur une idée originale de : Baudouin d'Aumeries
Assistance à la programmation : Marc-Olivier Méhu
Soutien technique & logistique : Manuel Goepfert

Contact : metmap@orbifly.com




SOURCES & CREDITS :

   NOAA